Sun Valley, CA

2:03 AM PDT on August 21, 2014 (GMT -0700)
Burbank-Glendale-Pasadena | Change Station
CLOSE
Current Station
Airport
Location: Burbank,
Elevation: 774 ft
Nearby Weather Stations

Elev 774 ft 34.20 °N, 118.36 °W | Updated 10 minutes ago

Clear
Clear
67 °F
Feels Like 67 °F
N
6
Wind Variable Wind from SE

Today
High -- | Low -- °F
--% Chance of Precip.
Yesterday
High -- | Low -- °F
Precip. -- in
6:19 AM 7:33 PM
Waning Crescent, 15% visible
Pressure 29.88 in
Visibility 10.0 miles
Clouds Clear
Dew Point 59 °F
Humidity 76%
Rainfall 0.00 in
Snow Depth Not available.
UV 0 out of 12
Pollen 5.60 out of 12
Ozone Good
PM2.5 Moderate
Flu Activity Not available.
METAR KBUR 210853Z 14005KT 10SM CLR 19/15 A2992 RMK AO2 SLP118 T01940150 58003

More Conditions Fewer Conditions

Pressure 29.88 in
Visibility 10.0 miles
Clouds Clear
Dew Point 59 °F
Humidity 76%
Rainfall 0.00 in
Snow Depth Not available.
UV 0 out of 12
Pollen 5.60 out of 12
Ozone Good
PM2.5 Moderate
Flu Activity Not available.
METAR KBUR 210853Z 14005KT 10SM CLR 19/15 A2992 RMK AO2 SLP118 T01940150 58003

More Conditions Fewer Conditions

10-Day Weather Forecast

Almanac

Astronomy

Aug. 21, 2014 Rise Set
Actual Time 6:19 AM PDT 7:33 PM PDT
Civil Twilight 5:52 AM PDT 7:59 PM PDT
Nautical Twilight 5:21 AM PDT 8:30 PM PDT
Astronomical Twilight 4:49 AM PDT 9:02 PM PDT
Moon 2:57 AM PDT 5:01 PM PDT
Length of Visible Light 14h 06m
Length of Day
13h 14m
Tomorrow will be 1m 56s shorter.
Waning Crescent, 15% of the Moon is Illuminated
Today
Waning Crescent
Aug 25
New
Sep 2
First Quarter
Sep 8
Full
Sep 15
Last Quarter

Today's Extremes

State Highs State Lows

Community

WunderPhotos

Upload Photos

1,745,864 photos uploaded!

Nearby

Air Quality

  Air Quality AQ Index Pollutant
Yesterday Moderate
PM2.5
Yesterday Good
OZONE
Current Moderate
PM2.5
Current Good
OZONE
Thursday Good
PM10
Thursday Good
OZONE
Thursday Good
CO
Thursday Good
NO2

Snow Depth

Station Depth Elevation
Leavitt Lake 1 in 9400 ft
Leavitt Meadows 1 in 7200 ft
Summit Meadow 0 in 9122 ft
Ebbetts Pass 0 in 8700 ft
Blue Lakes 0 in 8000 ft

Earthquake Activity

City Distance Mag. Time & Date
Malibu Beach, California 27 miles 3.4 10:03 AM PDT
2014-08-15
Kettleman City, California 158 miles 2.9 11:32 PM PDT
2014-08-14
Yucca Valley, California 109 miles 3.8 8:57 PM PDT
2014-08-14
Minimum magnitude displayed is 2.5.

Coastal Water Temperatures

Place Temperature
Santa Monica Pier 71.1 °F
Los Angeles, CA 66.9 °F
La Jolla, CA 71.1 °F

Nearby Weather Stations